Anam Cara — WDI7488 — position and weather

sailwx.info

Track history (hours):
 
Tides and Currents Weather Stations Pressure Air Temp Water Temp Dewpoint Dewpoint Depression Visibility Wind Speed Wind Dir Waves Ship Positions

Anam Cara

Owner: Kelly Development, Portland, OR. More information available from US FCC via Universal Licensing System and Coast Guard Vessel Documentation Center.

Last reported at 2018-Jul-16 01:57 UTC. Time now 2018-Jul-21 17:12 UTC.
Position N 47°30' W 122°23'.

Length 12 m.

Type: Sailing vessel. MMSI: 367729240.

Date/timePositionNaut miles runAvg speedWind from/ knotsBaromVisibWave heightAir tempDewpointWater temp
2018-Jul-16 01:57N 47°30' W 122°23'1 1.1
2018-Jul-16 01:29N 47°30' W 122°23'1 1.8
2018-Jul-16 01:00N 47°30' W 122°24'1 1.2
2018-Jul-16 00:30N 47°30' W 122°25'1 0.1
2018-Jul-15 04:20N 47°30' W 122°23'0 0.0
2018-Jul-15 04:00N 47°30' W 122°23'0 0.3
2018-Jul-15 03:30N 47°30' W 122°24'1 2.5
2018-Jul-15 03:00N 47°31' W 122°25'1 1.1
2018-Jul-15 02:29N 47°31' W 122°25'1 1.8
2018-Jul-15 02:00N 47°31' W 122°24'1 0.0
2018-Jul-14 04:25N 47°30' W 122°23'1 1.2
2018-Jul-14 03:55N 47°30' W 122°24'3 6.2
2018-Jul-14 03:30N 47°31' W 122°28'2 4.7
2018-Jul-14 02:59N 47°34' W 122°27'1 2.5
2018-Jul-14 02:26N 47°33' W 122°25'2 3.6
2018-Jul-14 02:00N 47°31' W 122°26'2 0.1
2018-Jul-13 04:25N 47°30' W 122°24'0 0.8
2018-Jul-13 04:00N 47°31' W 122°24'2 3.5
2018-Jul-13 03:29N 47°31' W 122°26'0 0.8
2018-Jul-13 03:00N 47°31' W 122°26'1 2.9
2018-Jul-13 02:30N 47°30' W 122°24'  
2018-Jul-09 00:59N 47°30' W 122°23'1 1.1
2018-Jul-09 00:30N 47°30' W 122°24'3 5.2
2018-Jul-09 00:00N 47°32' W 122°27'3 2.5
2018-Jul-08 22:53N 47°34' W 122°29'2 5.0
2018-Jul-08 22:30N 47°33' W 122°28'3 5.3
2018-Jul-08 22:00N 47°31' W 122°25'  
Track history (hours):
 
Tides and Currents Weather Stations Pressure Air Temp Water Temp Dewpoint Dewpoint Depression Visibility Wind Speed Wind Dir Waves Ship Positions

Anam Cara

Owner: Kelly Development, Portland, OR. More information available from US FCC via Universal Licensing System and Coast Guard Vessel Documentation Center.

Last reported at 2018-Jul-16 01:57 UTC. Time now 2018-Jul-21 17:12 UTC.
Position N 47°30' W 122°23'.

Length 12 m.

Type: Sailing vessel. MMSI: 367729240.

Date/timePositionNaut miles runAvg speedWind from/ knotsBaromVisibWave heightAir tempDewpointWater temp
2018-Jul-16 01:57N 47°30' W 122°23'1 1.1
2018-Jul-16 01:29N 47°30' W 122°23'1 1.8
2018-Jul-16 01:00N 47°30' W 122°24'1 1.2
2018-Jul-16 00:30N 47°30' W 122°25'1 0.1
2018-Jul-15 04:20N 47°30' W 122°23'0 0.0
2018-Jul-15 04:00N 47°30' W 122°23'0 0.3
2018-Jul-15 03:30N 47°30' W 122°24'1 2.5
2018-Jul-15 03:00N 47°31' W 122°25'1 1.1
2018-Jul-15 02:29N 47°31' W 122°25'1 1.8
2018-Jul-15 02:00N 47°31' W 122°24'1 0.0
2018-Jul-14 04:25N 47°30' W 122°23'1 1.2
2018-Jul-14 03:55N 47°30' W 122°24'3 6.2
2018-Jul-14 03:30N 47°31' W 122°28'2 4.7
2018-Jul-14 02:59N 47°34' W 122°27'1 2.5
2018-Jul-14 02:26N 47°33' W 122°25'2 3.6
2018-Jul-14 02:00N 47°31' W 122°26'2 0.1
2018-Jul-13 04:25N 47°30' W 122°24'0 0.8
2018-Jul-13 04:00N 47°31' W 122°24'2 3.5
2018-Jul-13 03:29N 47°31' W 122°26'0 0.8
2018-Jul-13 03:00N 47°31' W 122°26'1 2.9
2018-Jul-13 02:30N 47°30' W 122°24'  
2018-Jul-09 00:59N 47°30' W 122°23'1 1.1
2018-Jul-09 00:30N 47°30' W 122°24'3 5.2
2018-Jul-09 00:00N 47°32' W 122°27'3 2.5
2018-Jul-08 22:53N 47°34' W 122°29'2 5.0
2018-Jul-08 22:30N 47°33' W 122°28'3 5.3
2018-Jul-08 22:00N 47°31' W 122°25'  

Dump ship's entire track history